Time;durP1;ratioP1;P1;durP2;ratioP2;P2;SDS_P1;SDS_P2;PMS_P1;PMS_P2;Temp;Humidity;BMP_temperature;BMP_pressure;BME280_temperature;BME280_humidity;BME280_pressure;Samples;Min_cycle;Max_cycle;Signal;HPM_P1;HPM_P2
2022/09/15 00:01:06;;;;;;;11.35;6.72;;;;;;;13.37;90.28;100611.47;5038270;28;20022;-80
2022/09/15 00:03:31;;;;;;;11.70;6.95;;;;;;;13.38;90.26;100613.19;5037146;28;20036;-80
2022/09/15 00:05:56;;;;;;;11.00;7.10;;;;;;;13.35;89.96;100616.78;5044714;28;20064;-80
2022/09/15 00:08:23;;;;;;;10.55;6.90;;;;;;;13.34;90.17;100622.91;5039130;28;20051;-80
2022/09/15 00:10:51;;;;;;;12.52;6.95;;;;;;;13.33;90.06;100612.50;5048589;28;20184;-80
2022/09/15 00:13:17;;;;;;;10.57;6.65;;;;;;;13.32;90.03;100616.06;5042062;28;20037;-80
2022/09/15 00:15:43;;;;;;;10.27;6.78;;;;;;;13.32;90.10;100613.44;5042318;28;20029;-80
2022/09/15 00:18:08;;;;;;;11.48;6.25;;;;;;;13.30;90.06;100612.66;5034457;28;20477;-80
2022/09/15 00:20:34;;;;;;;10.95;6.60;;;;;;;13.30;90.06;100610.03;5042803;28;20021;-80
2022/09/15 00:22:59;;;;;;;10.60;6.85;;;;;;;13.29;90.13;100608.34;5031639;28;20112;-80
2022/09/15 00:25:24;;;;;;;9.95;7.03;;;;;;;13.29;90.01;100610.97;5039896;28;20033;-80
2022/09/15 00:27:50;;;;;;;12.40;6.50;;;;;;;13.30;90.06;100617.88;5040574;28;20025;-80
2022/09/15 00:30:15;;;;;;;11.18;7.35;;;;;;;13.29;90.23;100614.41;5045701;28;20025;-80
2022/09/15 00:32:40;;;;;;;12.88;6.70;;;;;;;13.29;90.28;100605.72;5035440;28;20028;-80
2022/09/15 00:35:06;;;;;;;10.65;6.95;;;;;;;13.29;90.09;100596.13;5039702;28;20037;-80
2022/09/15 00:37:32;;;;;;;11.32;6.72;;;;;;;13.30;90.35;100594.38;5034020;28;20056;-80
2022/09/15 00:39:57;;;;;;;9.35;6.10;;;;;;;13.29;90.22;100593.50;5018175;28;20108;-80
2022/09/15 00:42:23;;;;;;;13.63;7.45;;;;;;;13.31;90.36;100601.31;5033798;28;20115;-81
2022/09/15 00:44:57;;;;;;;10.48;7.00;;;;;;;13.33;90.54;100604.66;5043443;28;20024;-80
2022/09/15 00:47:27;;;;;;;9.15;6.50;;;;;;;13.34;90.86;100601.16;5051028;28;20029;-80
2022/09/15 00:50:00;;;;;;;11.27;6.30;;;;;;;13.35;90.54;100595.88;5015152;28;20478;-80
2022/09/15 00:52:40;;;;;;;11.02;6.78;;;;;;;13.35;90.42;100597.63;5033741;28;20025;-80
2022/09/15 00:55:10;;;;;;;11.90;6.63;;;;;;;13.34;90.53;100602.00;5037486;28;20021;-80
2022/09/15 00:57:52;;;;;;;11.93;6.95;;;;;;;13.35;90.59;100595.00;5046565;28;20056;-80
2022/09/15 01:00:19;;;;;;;;;;;;;;;13.41;89.71;100597.41;5038434;28;20029;-80
2022/09/15 01:02:47;;;;;;;10.27;6.53;;;;;;;13.36;90.29;100600.19;5033799;28;19913;-80
2022/09/15 01:05:16;;;;;;;9.63;6.85;;;;;;;13.36;90.64;100602.81;5028635;28;20060;-80
2022/09/15 01:07:51;;;;;;;11.43;6.70;;;;;;;13.37;90.66;100595.81;5033507;28;20021;-80
2022/09/15 01:10:36;;;;;;;11.95;6.88;;;;;;;13.40;90.69;100597.47;5040661;28;20025;-80
2022/09/15 01:13:07;;;;;;;9.98;6.40;;;;;;;13.39;90.75;100599.19;5033024;28;20021;-79
2022/09/15 01:15:35;;;;;;;10.77;7.07;;;;;;;13.40;90.60;100606.16;5034865;28;20030;-80
2022/09/15 01:18:32;;;;;;;11.95;7.15;;;;;;;13.42;90.72;100606.94;5033496;28;20033;-79
2022/09/15 01:21:16;;;;;;;10.77;7.03;;;;;;;13.45;90.83;100601.59;5040587;28;20393;-80
2022/09/15 01:24:19;;;;;;;11.23;7.13;;;;;;;13.44;90.74;100602.53;5040321;28;20028;-80
2022/09/15 01:26:52;;;;;;;12.38;6.85;;;;;;;13.46;90.83;100605.06;5031796;28;20120;-80
2022/09/15 01:29:51;;;;;;;10.52;7.05;;;;;;;13.47;90.87;100610.22;5034763;28;20029;-80
2022/09/15 01:35:41;;;;;;;11.85;6.93;;;;;;;13.46;90.33;100605.91;5043712;28;20349;-80
2022/09/15 01:38:15;;;;;;;11.68;6.80;;;;;;;13.43;90.61;100608.66;5040645;28;20481;-80
2022/09/15 01:41:00;;;;;;;11.85;7.38;;;;;;;13.41;90.71;100607.88;5035572;28;20037;-80
2022/09/15 01:43:28;;;;;;;11.40;7.60;;;;;;;13.38;90.94;100607.94;5036070;28;20108;-80
2022/09/15 01:45:54;;;;;;;12.30;7.75;;;;;;;13.39;91.15;100604.44;5032194;28;20029;-80
2022/09/15 01:48:24;;;;;;;11.18;7.30;;;;;;;13.42;91.17;100600.84;5032216;28;20495;-80
2022/09/15 01:50:54;;;;;;;11.15;7.85;;;;;;;13.44;90.99;100604.25;5037263;28;20037;-80
2022/09/15 01:53:22;;;;;;;10.90;7.27;;;;;;;13.46;91.48;100605.06;5039970;28;20447;-80
2022/09/15 01:56:08;;;;;;;12.60;7.13;;;;;;;13.48;91.38;100604.09;5042142;28;20029;-80
2022/09/15 01:58:35;;;;;;;13.38;7.18;;;;;;;13.47;91.64;100597.16;5031621;28;20040;-80
2022/09/15 02:01:07;;;;;;;12.38;7.13;;;;;;;13.50;91.65;100601.41;5038813;28;20091;-77
2022/09/15 02:03:49;;;;;;;12.23;7.22;;;;;;;13.54;91.68;100609.97;5035346;28;20396;-77
2022/09/15 02:06:23;;;;;;;11.48;7.47;;;;;;;13.54;91.76;100596.88;5040399;28;20144;-77
2022/09/15 02:09:00;;;;;;;12.52;6.60;;;;;;;13.55;91.61;100603.81;5033819;28;20056;-78
2022/09/15 02:11:26;;;;;;;14.02;7.05;;;;;;;13.53;91.34;100603.03;5032693;28;20036;-77
2022/09/15 02:14:16;;;;;;;14.68;6.90;;;;;;;13.55;91.19;100603.81;5035177;28;20033;-77
2022/09/15 02:16:47;;;;;;;12.05;7.10;;;;;;;13.53;91.26;100605.63;5049904;28;20036;-77
2022/09/15 02:19:15;;;;;;;;;;;;;;;13.57;90.28;100599.38;5035388;28;20115;-77
2022/09/15 02:21:52;;;;;;;11.40;6.72;;;;;;;13.50;91.04;100597.00;5035924;28;19921;-77
2022/09/15 02:24:24;;;;;;;11.70;6.53;;;;;;;13.50;91.09;100602.25;5031253;28;20022;-77
2022/09/15 02:26:53;;;;;;;9.73;6.95;;;;;;;13.49;91.07;100600.53;5035064;28;20025;-77
2022/09/15 02:29:22;;;;;;;10.57;6.93;;;;;;;13.49;91.03;100599.69;5017350;28;20055;-77
2022/09/15 02:31:51;;;;;;;10.77;7.18;;;;;;;13.47;91.01;100594.56;5036627;28;20020;-77
2022/09/15 02:34:40;;;;;;;10.07;6.60;;;;;;;13.48;90.83;100598.88;5032515;28;20116;-77
2022/09/15 02:37:08;;;;;;;9.82;7.05;;;;;;;13.44;90.60;100592.06;5037768;28;20482;-80
2022/09/15 02:39:38;;;;;;;11.40;7.18;;;;;;;13.42;90.71;100588.66;5032737;28;20040;-77
2022/09/15 02:42:04;;;;;;;11.90;6.97;;;;;;;13.41;90.92;100591.34;5032659;28;20078;-77
2022/09/15 02:44:30;;;;;;;11.73;7.05;;;;;;;13.37;90.72;100593.19;5038458;28;20017;-77
2022/09/15 02:46:59;;;;;;;10.70;7.03;;;;;;;13.35;90.73;100595.00;5032814;28;20077;-77
2022/09/15 02:49:25;;;;;;;10.15;6.70;;;;;;;13.33;90.45;100597.69;5034360;28;20074;-77
2022/09/15 02:51:50;;;;;;;14.45;7.53;;;;;;;13.32;90.48;100598.59;5039911;28;20466;-77
2022/09/15 02:54:15;;;;;;;10.18;7.03;;;;;;;13.30;90.56;100599.59;5017374;28;20028;-77
2022/09/15 02:56:40;;;;;;;10.50;7.07;;;;;;;13.29;90.51;100610.97;5034573;28;20032;-77
2022/09/15 02:59:06;;;;;;;9.93;6.88;;;;;;;13.28;90.57;100601.41;5035183;28;20029;-77
2022/09/15 03:01:33;;;;;;;9.80;6.80;;;;;;;13.28;90.53;100607.47;5034635;28;20033;-77
2022/09/15 03:04:00;;;;;;;10.25;6.88;;;;;;;13.27;90.42;100607.56;5032679;28;20073;-77
2022/09/15 03:06:27;;;;;;;11.48;7.30;;;;;;;13.28;90.13;100607.47;5032455;28;20052;-77
2022/09/15 03:08:57;;;;;;;10.15;6.85;;;;;;;13.28;90.63;100604.88;5031985;28;20468;-77
2022/09/15 03:11:25;;;;;;;13.25;7.50;;;;;;;13.30;90.71;100610.03;5034993;28;20025;-77
2022/09/15 03:13:59;;;;;;;11.85;7.13;;;;;;;13.30;90.78;100604.81;5032099;28;20029;-77
2022/09/15 03:16:26;;;;;;;10.70;7.00;;;;;;;13.31;90.94;100614.38;5033736;28;20033;-77
2022/09/15 03:18:54;;;;;;;10.57;7.00;;;;;;;13.32;91.42;100613.44;5032602;28;20021;-77
2022/09/15 03:21:20;;;;;;;12.23;7.18;;;;;;;13.33;91.03;100615.13;5034004;28;20025;-77
2022/09/15 03:23:46;;;;;;;11.68;7.13;;;;;;;13.34;91.01;100616.81;5036790;28;20026;-77
2022/09/15 03:26:12;;;;;;;13.90;7.38;;;;;;;13.35;91.19;100624.63;5035335;28;20074;-77
2022/09/15 03:28:38;;;;;;;9.73;6.53;;;;;;;13.35;91.12;100622.00;5043307;28;20029;-77
2022/09/15 03:31:04;;;;;;;10.75;7.60;;;;;;;13.36;91.18;100631.53;5038874;28;20431;-77
2022/09/15 03:33:30;;;;;;;11.35;7.13;;;;;;;13.37;91.15;100632.38;5036447;28;20018;-77
2022/09/15 03:35:56;;;;;;;10.73;7.25;;;;;;;13.40;90.99;100632.28;5033986;28;20072;-77
2022/09/15 03:38:22;;;;;;;9.20;6.95;;;;;;;13.40;90.79;100639.25;5036866;28;20029;-77
2022/09/15 03:40:56;;;;;;;12.02;6.97;;;;;;;13.39;90.78;100640.19;5042780;28;20026;-77
2022/09/15 03:43:22;;;;;;;9.55;6.82;;;;;;;13.36;90.56;100642.00;5035252;28;20186;-77
2022/09/15 03:45:47;;;;;;;10.65;7.53;;;;;;;13.34;90.65;100642.94;5038462;28;20477;-77
2022/09/15 03:48:13;;;;;;;11.05;6.72;;;;;;;13.32;90.64;100639.56;5031397;28;20052;-77
2022/09/15 03:50:38;;;;;;;10.07;6.90;;;;;;;13.32;90.78;100639.56;5038431;28;20037;-77
2022/09/15 03:53:03;;;;;;;10.75;6.95;;;;;;;13.31;90.74;100640.50;5046557;28;20012;-77
2022/09/15 03:55:29;;;;;;;14.13;6.70;;;;;;;13.31;90.97;100637.88;5043088;28;20380;-77
2022/09/15 03:57:54;;;;;;;13.48;7.57;;;;;;;13.31;90.82;100637.88;5041499;28;20356;-77
2022/09/15 04:00:20;;;;;;;10.23;6.75;;;;;;;13.31;91.05;100641.31;5035462;28;20031;-77
2022/09/15 04:02:46;;;;;;;10.07;7.00;;;;;;;13.31;90.79;100632.66;5044559;28;20430;-77
2022/09/15 04:05:12;;;;;;;11.75;7.45;;;;;;;13.30;90.88;100629.16;5039540;28;20032;-77
2022/09/15 04:07:38;;;;;;;9.60;6.45;;;;;;;13.29;90.88;100634.47;5040421;28;20029;-77
2022/09/15 04:10:05;;;;;;;12.43;7.43;;;;;;;13.27;91.00;100625.84;5039716;28;20023;-77
2022/09/15 04:12:31;;;;;;;12.20;7.82;;;;;;;13.27;91.15;100631.06;5044937;28;20036;-77
2022/09/15 04:14:57;;;;;;;12.02;6.57;;;;;;;13.24;91.00;100624.19;5044052;28;20029;-77
2022/09/15 04:17:22;;;;;;;8.55;6.13;;;;;;;13.24;91.25;100620.72;5040834;28;20028;-77
2022/09/15 04:19:47;;;;;;;10.52;6.88;;;;;;;13.26;90.82;100634.59;5042471;28;20102;-79
2022/09/15 04:22:13;;;;;;;9.20;5.97;;;;;;;13.26;90.92;100631.97;5043308;28;20033;-78
2022/09/15 04:24:38;;;;;;;10.60;5.90;;;;;;;13.27;90.85;100621.44;5040080;28;20022;-78
2022/09/15 04:27:03;;;;;;;9.82;6.13;;;;;;;13.26;91.01;100630.19;5033752;28;20026;-78
2022/09/15 04:29:28;;;;;;;8.40;5.70;;;;;;;13.27;90.73;100634.50;5041267;28;20554;-78
2022/09/15 04:31:54;;;;;;;11.82;6.22;;;;;;;13.28;91.01;100632.78;5017650;28;20029;-77
2022/09/15 04:34:19;;;;;;;9.50;5.93;;;;;;;13.28;90.85;100638.00;5041573;28;20041;-78
2022/09/15 04:36:45;;;;;;;9.63;6.03;;;;;;;13.29;90.97;100629.25;5036773;28;20033;-78
2022/09/15 04:39:10;;;;;;;8.48;5.78;;;;;;;13.31;91.62;100633.50;5034738;28;20068;-78
2022/09/15 04:41:37;;;;;;;8.73;6.15;;;;;;;13.33;91.31;100631.66;5037228;28;20457;-78
2022/09/15 04:44:02;;;;;;;9.45;6.13;;;;;;;13.33;91.59;100636.88;5023836;28;20123;-78
2022/09/15 04:46:27;;;;;;;10.50;6.18;;;;;;;13.35;91.37;100632.47;5040358;28;20029;-77
2022/09/15 04:48:54;;;;;;;10.02;6.32;;;;;;;13.37;91.48;100632.38;5036886;28;20033;-78
2022/09/15 04:51:21;;;;;;;10.52;6.25;;;;;;;13.37;91.60;100640.22;5040633;28;20037;-78
2022/09/15 04:53:47;;;;;;;9.98;6.45;;;;;;;13.38;91.47;100634.09;5039319;28;20029;-78
2022/09/15 04:56:16;;;;;;;10.13;6.47;;;;;;;13.39;91.59;100633.16;5038884;28;20484;-78
2022/09/15 04:58:44;;;;;;;10.93;6.85;;;;;;;13.41;91.41;100634.00;5040244;28;20029;-78
2022/09/15 05:01:12;;;;;;;9.10;6.30;;;;;;;13.41;91.33;100631.38;5037515;28;20039;-78
2022/09/15 05:03:38;;;;;;;9.95;6.20;;;;;;;13.43;91.42;100636.53;5039372;28;21310;-78
2022/09/15 05:06:06;;;;;;;10.20;6.65;;;;;;;13.43;91.45;100632.16;5041185;28;20128;-78
2022/09/15 05:08:31;;;;;;;9.50;6.47;;;;;;;13.44;91.50;100633.00;5035526;28;20063;-78
2022/09/15 05:11:06;;;;;;;10.57;6.28;;;;;;;13.46;91.52;100633.78;5031357;28;20095;-78
2022/09/15 05:13:32;;;;;;;10.35;6.60;;;;;;;13.44;91.53;100625.16;5034084;28;20028;-78
2022/09/15 05:16:15;;;;;;;11.00;6.18;;;;;;;13.43;91.42;100634.78;5040166;28;20052;-78
2022/09/15 05:18:44;;;;;;;9.30;6.07;;;;;;;13.40;91.11;100634.91;5032930;28;20037;-78
2022/09/15 05:21:12;;;;;;;9.40;6.15;;;;;;;13.40;91.33;100640.13;5038974;28;20662;-78
2022/09/15 05:23:38;;;;;;;10.57;6.50;;;;;;;13.38;90.96;100636.69;5032202;28;20115;-77
2022/09/15 05:26:06;;;;;;;13.77;6.60;;;;;;;13.38;90.91;100641.91;5039894;28;20079;-78
2022/09/15 05:28:33;;;;;;;11.27;6.57;;;;;;;13.37;91.02;100637.59;5034641;28;20499;-78
2022/09/15 05:30:59;;;;;;;11.75;6.93;;;;;;;13.36;90.80;100641.13;5030920;28;20049;-78
2022/09/15 05:33:24;;;;;;;12.65;6.55;;;;;;;13.37;91.05;100642.84;5034055;28;20048;-78
2022/09/15 05:35:53;;;;;;;9.88;6.50;;;;;;;13.39;90.73;100650.63;5036900;28;20053;-78
2022/09/15 05:38:18;;;;;;;11.57;6.60;;;;;;;13.36;90.71;100646.34;5034506;28;20025;-78
2022/09/15 05:40:44;;;;;;;11.30;6.38;;;;;;;13.35;90.58;100648.13;5036765;28;20036;-78
2022/09/15 05:43:10;;;;;;;10.95;6.53;;;;;;;13.34;90.38;100648.19;5043970;28;20029;-77
2022/09/15 05:45:35;;;;;;;11.38;6.50;;;;;;;13.34;90.49;100651.66;5032270;28;20029;-78
2022/09/15 05:48:01;;;;;;;10.13;6.40;;;;;;;13.35;90.51;100661.19;5030888;28;20021;-78
2022/09/15 05:50:26;;;;;;;8.75;6.18;;;;;;;13.34;90.40;100658.63;5032445;28;20079;-77
2022/09/15 05:52:52;;;;;;;10.23;6.22;;;;;;;13.34;90.52;100656.88;5039397;28;20480;-77
2022/09/15 05:55:17;;;;;;;12.25;6.82;;;;;;;13.36;90.74;100667.25;5034037;28;20026;-78
2022/09/15 05:57:43;;;;;;;10.95;6.70;;;;;;;13.38;90.43;100665.44;5031584;28;20016;-77
2022/09/15 06:00:09;;;;;;;11.02;6.45;;;;;;;13.38;90.41;100670.66;5034861;28;20024;-78
2022/09/15 06:02:35;;;;;;;11.07;5.85;;;;;;;13.39;90.64;100667.16;5034373;28;20054;-77
2022/09/15 06:05:01;;;;;;;11.55;6.80;;;;;;;13.41;91.14;100667.97;5027917;28;20103;-77
2022/09/15 06:07:27;;;;;;;10.13;6.80;;;;;;;13.46;90.55;100668.63;5036028;28;20397;-78
2022/09/15 06:09:52;;;;;;;10.38;6.57;;;;;;;13.49;90.73;100668.50;5039112;28;20029;-78
2022/09/15 06:12:18;;;;;;;10.10;6.60;;;;;;;13.55;90.57;100677.00;5037664;28;20122;-77
2022/09/15 06:14:44;;;;;;;9.95;6.88;;;;;;;13.57;90.56;100680.41;5036106;28;20386;-77
2022/09/15 06:17:10;;;;;;;10.50;6.45;;;;;;;13.61;90.52;100676.75;5039007;28;20022;-78
2022/09/15 06:19:35;;;;;;;9.27;6.32;;;;;;;13.62;90.25;100681.91;5039958;28;20387;-78
2022/09/15 06:22:00;;;;;;;9.10;6.28;;;;;;;13.61;90.07;100677.59;5043301;28;20021;-78
2022/09/15 06:24:25;;;;;;;8.40;6.20;;;;;;;13.62;90.15;100678.47;5036706;28;20026;-78
2022/09/15 06:26:51;;;;;;;10.93;6.35;;;;;;;13.62;90.56;100681.06;5034051;28;20029;-78
2022/09/15 06:29:16;;;;;;;10.30;6.50;;;;;;;13.65;90.87;100689.63;5036799;28;20021;-77
2022/09/15 06:31:41;;;;;;;11.20;6.75;;;;;;;13.67;90.99;100684.31;5036365;28;20467;-77
2022/09/15 06:34:10;;;;;;;10.20;6.32;;;;;;;13.71;90.70;100687.69;5034192;28;20863;-77
2022/09/15 06:36:36;;;;;;;11.65;6.82;;;;;;;13.73;90.46;100694.53;5035412;28;20499;-77
2022/09/15 06:39:02;;;;;;;12.30;6.95;;;;;;;13.78;90.60;100692.59;5037618;28;20036;-77
2022/09/15 06:41:30;;;;;;;10.88;6.72;;;;;;;13.81;90.83;100692.47;5034878;28;20025;-78
2022/09/15 06:43:56;;;;;;;9.68;6.75;;;;;;;13.88;90.72;100694.81;5038067;28;20030;-78
2022/09/15 06:46:23;;;;;;;11.30;6.60;;;;;;;13.91;90.63;100695.56;5031319;28;20021;-78
2022/09/15 06:48:50;;;;;;;8.98;6.07;;;;;;;13.94;90.05;100705.03;5035686;28;20066;-78
2022/09/15 06:51:18;;;;;;;9.32;6.68;;;;;;;13.98;90.13;100709.22;5033215;28;20037;-78
2022/09/15 06:53:44;;;;;;;9.38;6.35;;;;;;;14.00;89.65;100706.53;5033574;28;20393;-78
2022/09/15 06:56:12;;;;;;;13.07;6.45;;;;;;;14.02;89.88;100718.63;5038537;28;22421;-78
2022/09/15 06:58:39;;;;;;;11.05;6.45;;;;;;;14.04;89.13;100719.41;5038633;28;20063;-78
2022/09/15 07:01:11;;;;;;;8.45;5.90;;;;;;;14.05;89.39;100723.72;5037729;28;20055;-78
2022/09/15 07:03:38;;;;;;;8.48;6.53;;;;;;;14.08;89.23;100722.75;5032197;28;20480;-79
2022/09/15 07:06:04;;;;;;;9.77;6.38;;;;;;;14.14;89.55;100721.66;5031751;28;20053;-78
2022/09/15 07:08:29;;;;;;;9.38;6.18;;;;;;;14.16;88.97;100725.06;5035470;28;20464;-77
2022/09/15 07:10:55;;;;;;;9.70;6.35;;;;;;;14.20;88.97;100731.84;5033912;28;20103;-77
2022/09/15 07:13:21;;;;;;;8.93;6.60;;;;;;;14.22;88.18;100735.25;5036165;28;20082;-78
2022/09/15 07:15:51;;;;;;;8.50;6.18;;;;;;;14.23;88.04;100731.72;5038020;28;20021;-77
2022/09/15 07:18:16;;;;;;;10.48;6.20;;;;;;;14.26;88.48;100732.41;5034156;28;20528;-78
2022/09/15 07:20:42;;;;;;;8.48;6.03;;;;;;;14.29;87.81;100728.84;5039027;28;20113;-77
2022/09/15 07:23:07;;;;;;;9.15;5.50;;;;;;;14.32;87.52;100735.69;5020513;28;20097;-77
2022/09/15 07:25:33;;;;;;;8.18;5.65;;;;;;;14.34;87.68;100734.72;5038224;28;20091;-78
2022/09/15 07:27:58;;;;;;;8.18;4.93;;;;;;;14.37;87.62;100738.97;5040488;28;20029;-78
2022/09/15 07:30:23;;;;;;;6.95;5.22;;;;;;;14.39;87.50;100737.97;5034414;28;20025;-80
2022/09/15 07:32:49;;;;;;;7.53;4.57;;;;;;;14.43;87.03;100738.72;5038105;28;20033;-78
2022/09/15 07:35:14;;;;;;;11.65;5.03;;;;;;;14.47;87.02;100734.19;5038976;28;20060;-78
2022/09/15 07:37:39;;;;;;;9.70;4.75;;;;;;;14.54;87.61;100749.56;5020973;28;20021;-78
2022/09/15 07:40:05;;;;;;;9.40;4.43;;;;;;;14.59;86.77;100748.50;5038773;28;20123;-78
2022/09/15 07:42:32;;;;;;;7.15;4.35;;;;;;;14.64;86.04;100743.91;5023784;28;20033;-79
2022/09/15 07:44:57;;;;;;;7.82;4.57;;;;;;;14.69;85.77;100747.22;5038158;28;20059;-78
2022/09/15 07:47:22;;;;;;;7.78;3.90;;;;;;;14.74;85.67;100752.22;5032849;28;20481;-78
2022/09/15 07:49:49;;;;;;;5.40;3.85;;;;;;;14.77;85.18;100758.22;5039514;28;20033;-79
2022/09/15 07:52:14;;;;;;;6.18;4.10;;;;;;;14.82;84.44;100756.22;5034543;28;20097;-79
2022/09/15 07:54:39;;;;;;;7.18;4.10;;;;;;;14.86;84.51;100762.16;5019264;28;20439;-78
2022/09/15 07:57:05;;;;;;;6.95;3.67;;;;;;;14.85;83.56;100761.31;5037346;28;20029;-78
2022/09/15 07:59:30;;;;;;;6.10;3.63;;;;;;;14.86;83.55;100763.00;5040285;28;20024;-79
2022/09/15 08:01:55;;;;;;;7.75;3.42;;;;;;;14.90;83.89;100763.72;5040532;28;20379;-78
2022/09/15 08:04:21;;;;;;;6.90;3.60;;;;;;;14.93;83.22;100758.34;5041694;28;20440;-79
2022/09/15 08:06:46;;;;;;;5.05;3.40;;;;;;;14.96;83.48;100766.06;5042663;28;20161;-79
2022/09/15 08:09:13;;;;;;;7.90;3.60;;;;;;;14.96;83.19;100767.81;5046024;28;20739;-79
2022/09/15 08:11:43;;;;;;;7.90;3.75;;;;;;;14.96;82.83;100771.31;5028308;28;20144;-79
2022/09/15 08:14:08;;;;;;;6.88;3.60;;;;;;;14.99;83.58;100770.31;5036847;28;20105;-78
2022/09/15 08:16:34;;;;;;;7.28;3.65;;;;;;;15.03;83.60;100772.72;5029176;28;20129;-78
2022/09/15 08:18:59;;;;;;;8.32;3.08;;;;;;;15.07;82.04;100773.44;5035342;28;20032;-79
2022/09/15 08:21:26;;;;;;;6.38;3.30;;;;;;;15.11;81.79;100777.63;5038041;28;20106;-79
2022/09/15 08:23:54;;;;;;;4.05;2.83;;;;;;;15.14;80.72;100776.63;5021393;28;20029;-79
2022/09/15 08:26:20;;;;;;;4.63;2.88;;;;;;;15.17;80.82;100779.13;5039528;28;20033;-79
2022/09/15 08:28:46;;;;;;;5.70;3.10;;;;;;;15.20;79.95;100780.72;5038731;28;20048;-78
2022/09/15 08:31:13;;;;;;;7.25;3.33;;;;;;;15.23;80.87;100780.59;5038010;28;20031;-79
2022/09/15 08:33:38;;;;;;;5.78;3.00;;;;;;;15.29;80.85;100785.53;5036099;28;20410;-79
2022/09/15 08:36:07;;;;;;;5.38;2.95;;;;;;;15.33;80.00;100789.72;5039098;28;20405;-78
2022/09/15 08:38:32;;;;;;;6.03;2.70;;;;;;;15.34;80.06;100791.41;5034245;28;20111;-79
2022/09/15 08:41:02;;;;;;;7.53;2.80;;;;;;;15.37;79.19;100790.44;5036131;28;20116;-79
2022/09/15 08:43:34;;;;;;;9.15;2.83;;;;;;;15.38;78.35;100786.88;5038039;28;20025;-78
2022/09/15 08:46:04;;;;;;;4.70;2.58;;;;;;;15.43;78.63;100791.00;5042640;28;20065;-79
2022/09/15 08:48:40;;;;;;;5.80;2.78;;;;;;;15.48;78.02;100793.41;5043583;28;20115;-80
2022/09/15 08:51:12;;;;;;;5.45;2.50;;;;;;;15.52;77.25;100794.09;5038378;28;20364;-79
2022/09/15 08:53:45;;;;;;;5.85;2.85;;;;;;;15.55;78.37;100800.03;5022167;28;20056;-75
2022/09/15 08:56:16;;;;;;;7.60;2.80;;;;;;;15.59;77.91;100806.84;5036225;28;20029;-77
2022/09/15 08:58:43;;;;;;;4.00;2.75;;;;;;;15.61;77.29;100812.88;5039686;28;20104;-79
2022/09/15 09:01:30;;;;;;;6.85;2.50;;;;;;;15.65;77.73;100817.97;5039378;28;20079;-79
2022/09/15 09:04:09;;;;;;;5.18;2.30;;;;;;;15.65;76.75;100810.13;5036156;28;20380;-78
2022/09/15 09:07:08;;;;;;;4.53;2.30;;;;;;;15.71;78.29;100817.69;5039021;28;20045;-78
2022/09/15 09:09:37;;;;;;;4.53;2.10;;;;;;;15.74;75.97;100817.53;5038895;28;20072;-79
2022/09/15 09:12:31;;;;;;;4.55;2.47;;;;;;;15.80;77.62;100822.50;5039563;28;20053;-79
2022/09/15 09:15:34;;;;;;;4.65;2.20;;;;;;;15.86;76.91;100822.22;5039308;28;21621;-78
2022/09/15 09:18:14;;;;;;;6.40;2.42;;;;;;;15.86;74.67;100829.25;5039963;28;20033;-78
2022/09/15 09:20:55;;;;;;;5.03;2.20;;;;;;;15.87;75.87;100829.19;5040920;28;20037;-78
2022/09/15 09:23:24;;;;;;;6.00;2.30;;;;;;;15.85;75.63;100830.13;5035504;28;20105;-78
2022/09/15 09:25:51;;;;;;;5.07;2.25;;;;;;;15.78;74.13;100825.19;5037131;28;20512;-78
2022/09/15 09:28:31;;;;;;;4.38;2.20;;;;;;;15.75;75.97;100827.97;5036693;28;20021;-78
2022/09/15 09:31:05;;;;;;;4.28;1.50;;;;;;;15.69;72.18;100830.88;5036836;28;20028;-78
2022/09/15 09:33:40;;;;;;;5.32;1.20;;;;;;;15.69;72.13;100835.28;5021772;28;20468;-78
2022/09/15 09:36:09;;;;;;;4.15;0.85;;;;;;;15.65;70.48;100838.97;5036553;28;20091;-78
2022/09/15 09:38:37;;;;;;;4.13;0.93;;;;;;;15.62;70.54;100840.81;5038149;28;20033;-78
2022/09/15 09:41:15;;;;;;;3.53;0.90;;;;;;;15.61;71.58;100843.50;5038424;28;20539;-78
2022/09/15 09:43:42;;;;;;;4.13;0.95;;;;;;;15.56;69.96;100841.06;5035354;28;20052;-78
2022/09/15 09:46:14;;;;;;;2.72;0.80;;;;;;;15.55;71.01;100828.88;5031977;28;20037;-77
2022/09/15 09:48:46;;;;;;;4.78;1.00;;;;;;;15.56;71.09;100830.59;5015118;28;20559;-78
2022/09/15 09:51:32;;;;;;;3.65;1.00;;;;;;;15.58;72.84;100834.00;5033825;28;20044;-78
2022/09/15 09:54:10;;;;;;;5.45;0.98;;;;;;;15.57;72.95;100832.28;5036923;28;20033;-78
2022/09/15 09:56:36;;;;;;;3.45;1.00;;;;;;;15.58;70.82;100839.25;5036780;28;20102;-78
2022/09/15 09:59:02;;;;;;;4.35;1.50;;;;;;;15.58;71.60;100828.75;5037069;28;20120;-80
2022/09/15 10:01:28;;;;;;;4.30;1.50;;;;;;;15.57;72.77;100827.03;5037343;28;20024;-78
2022/09/15 10:04:18;;;;;;;3.10;1.50;;;;;;;15.60;74.03;100837.41;5034153;28;20032;-78
2022/09/15 10:06:44;;;;;;;3.00;1.30;;;;;;;15.62;73.75;100839.97;5025027;28;20067;-78
2022/09/15 10:09:15;;;;;;;3.65;1.50;;;;;;;15.65;73.37;100846.81;5038754;28;20037;-78
2022/09/15 10:11:43;;;;;;;;;;;;;;;15.72;74.88;100842.97;5039005;28;20037;-78
2022/09/15 10:14:23;;;;;;;4.63;1.20;;;;;;;15.68;73.92;100839.66;5037493;28;20031;-78
2022/09/15 10:17:06;;;;;;;4.78;1.40;;;;;;;15.73;74.67;100844.69;5033897;28;20029;-78
2022/09/15 10:19:48;;;;;;;5.90;1.30;;;;;;;15.77;73.41;100841.84;5037448;28;20040;-78
2022/09/15 10:22:30;;;;;;;3.33;1.30;;;;;;;15.78;72.71;100840.06;5034685;28;20106;-78
2022/09/15 10:24:56;;;;;;;3.70;1.05;;;;;;;15.80;70.73;100843.47;5035326;28;20051;-77
2022/09/15 10:27:33;;;;;;;3.63;1.13;;;;;;;15.88;72.86;100846.63;5031652;28;20048;-78
2022/09/15 10:30:19;;;;;;;7.45;2.17;;;;;;;15.99;73.73;100830.34;5033881;28;20033;-79
2022/09/15 10:32:44;;;;;;;4.10;1.45;;;;;;;16.04;72.94;100832.75;5035811;28;20033;-78
2022/09/15 10:35:15;;;;;;;4.03;1.67;;;;;;;16.08;74.19;100826.41;5036943;28;20045;-78
2022/09/15 10:38:07;;;;;;;5.50;1.60;;;;;;;16.14;73.86;100841.88;5035893;28;20029;-79
2022/09/15 10:40:42;;;;;;;2.75;1.20;;;;;;;16.13;71.02;100844.59;5037644;28;20071;-79
2022/09/15 10:43:22;;;;;;;5.70;1.20;;;;;;;16.07;71.60;100851.81;5033742;28;20117;-78
2022/09/15 10:45:49;;;;;;;3.35;1.10;;;;;;;15.99;72.02;100871.47;5035693;28;20123;-78
2022/09/15 10:48:59;;;;;;;4.30;0.90;;;;;;;15.80;72.27;100869.72;5036131;28;20029;-78
2022/09/15 10:51:42;;;;;;;2.92;0.68;;;;;;;15.55;72.18;100857.72;5025104;28;20073;-78
2022/09/15 10:54:28;;;;;;;3.63;0.57;;;;;;;15.37;72.10;100862.06;5035825;28;20025;-77
2022/09/15 10:57:17;;;;;;;3.15;0.60;;;;;;;15.20;73.64;100860.19;5032087;28;20041;-78
2022/09/15 10:59:59;;;;;;;3.08;0.70;;;;;;;15.09;74.56;100862.44;5033117;28;20115;-77
2022/09/15 11:02:33;;;;;;;4.00;0.70;;;;;;;15.01;75.16;100861.03;5036668;28;20374;-78
2022/09/15 11:05:17;;;;;;;1.02;0.50;;;;;;;14.99;74.68;100868.09;5020765;28;20116;-78
2022/09/15 11:08:13;;;;;;;2.50;0.52;;;;;;;14.93;75.05;100863.13;5019596;28;20112;-79
2022/09/15 11:10:45;;;;;;;2.28;0.50;;;;;;;14.84;74.46;100869.63;5019724;28;20037;-79
2022/09/15 11:13:20;;;;;;;4.53;0.60;;;;;;;14.78;73.62;100866.41;5023060;28;20389;-78
2022/09/15 11:16:25;;;;;;;2.05;0.75;;;;;;;14.75;75.23;100863.91;5022935;28;20033;-78
2022/09/15 11:18:56;;;;;;;1.55;0.85;;;;;;;14.77;75.25;100862.09;5023670;28;20409;-78
2022/09/15 11:21:38;;;;;;;1.88;0.40;;;;;;;14.80;75.51;100857.56;5027228;28;20103;-78
2022/09/15 11:24:22;;;;;;;1.83;0.43;;;;;;;14.89;75.52;100856.31;5025843;28;20045;-78
2022/09/15 11:26:55;;;;;;;2.20;0.45;;;;;;;14.97;75.51;100861.22;5026183;28;20041;-78
2022/09/15 11:29:50;;;;;;;5.40;0.88;;;;;;;15.06;75.09;100855.59;5023407;28;20032;-78
2022/09/15 11:32:23;;;;;;;3.00;0.50;;;;;;;15.20;75.26;100861.97;5024362;28;20029;-79
2022/09/15 11:35:00;;;;;;;3.88;0.75;;;;;;;15.29;74.67;100848.44;5026383;28;20053;-78
2022/09/15 11:37:37;;;;;;;1.90;0.52;;;;;;;15.40;74.27;100855.81;5025483;28;20033;-79
2022/09/15 11:40:20;;;;;;;5.55;0.70;;;;;;;15.52;74.58;100859.66;5027602;28;20030;-79